Time;durP1;ratioP1;P1;durP2;ratioP2;P2;SDS_P1;SDS_P2;PMS_P1;PMS_P2;Temp;Humidity;BMP_temperature;BMP_pressure;BME280_temperature;BME280_humidity;BME280_pressure;Samples;Min_cycle;Max_cycle;Signal;HPM_P1;HPM_P2
2022/01/27 00:05:35;;;;;;;92.45;33.25;;;;;;;;;;6276371;22;20003;-78
2022/01/27 00:13:20;;;;;;;81.30;28.23;;;;;;;;;;6293286;22;20442;-79
2022/01/27 00:15:47;;;;;;;90.25;28.92;;;;;;;;;;6276614;22;20054;-78
2022/01/27 00:18:17;;;;;;;79.95;25.35;;;;;;;;;;6224508;22;20393;-78
2022/01/27 00:20:43;;;;;;;74.55;24.25;;;;;;;;;;6275563;22;20020;-78
2022/01/27 00:23:08;;;;;;;57.47;21.90;;;;;;;;;;6249509;22;20445;-79
2022/01/27 00:25:34;;;;;;;58.40;20.90;;;;;;;;;;6276540;22;20330;-78
2022/01/27 00:27:59;;;;;;;57.25;21.95;;;;;;;;;;6276056;22;20003;-78
2022/01/27 00:30:25;;;;;;;76.05;28.73;;;;;;;;;;6276306;22;20004;-78
2022/01/27 00:32:50;;;;;;;72.43;24.75;;;;;;;;;;6277327;22;20400;-78
2022/01/27 00:35:16;;;;;;;69.05;23.83;;;;;;;;;;6224804;22;20078;-78
2022/01/27 00:37:42;;;;;;;68.15;22.50;;;;;;;;;;6223978;22;20008;-78
2022/01/27 00:40:10;;;;;;;72.47;24.65;;;;;;;;;;6248931;22;20332;-79
2022/01/27 00:42:36;;;;;;;73.30;24.05;;;;;;;;;;6276167;22;20086;-79
2022/01/27 00:45:02;;;;;;;68.63;23.38;;;;;;;;;;6249003;22;20011;-78
2022/01/27 00:47:27;;;;;;;63.90;22.70;;;;;;;;;;6276537;22;20334;-78
2022/01/27 00:49:53;;;;;;;56.50;20.95;;;;;;;;;;6248845;22;20014;-79
2022/01/27 00:52:27;;;;;;;59.20;20.95;;;;;;;;;;6275903;22;20129;-78
2022/01/27 00:54:54;;;;;;;58.45;21.65;;;;;;;;;;6275842;22;20011;-79
2022/01/27 01:00:00;;;;;;;71.35;22.35;;;;;;;;;;6276501;22;20412;-78
2022/01/27 01:15:45;;;;;;;54.78;18.50;;;;;;;;;;6275905;22;20086;-79
2022/01/27 01:32:18;;;;;;;55.15;18.05;;;;;;;;;;6275703;22;20362;-78
2022/01/27 01:34:42;;;;;;;53.95;19.42;;;;;;;;;;6274031;22;20049;-79
2022/01/27 01:37:09;;;;;;;54.47;18.92;;;;;;;;;;6275322;22;20004;-78
2022/01/27 01:39:36;;;;;;;71.72;21.25;;;;;;;;;;6275376;22;19999;-78
2022/01/27 01:42:04;;;;;;;55.20;18.48;;;;;;;;;;6276520;22;20004;-78
2022/01/27 01:44:29;;;;;;;57.13;19.55;;;;;;;;;;6256018;22;20056;-79
2022/01/27 01:46:55;;;;;;;55.47;18.35;;;;;;;;;;6275625;22;19999;-79
2022/01/27 01:49:23;;;;;;;55.35;18.92;;;;;;;;;;6250666;22;20033;-78
2022/01/27 01:51:48;;;;;;;53.13;18.92;;;;;;;;;;6276849;22;20454;-79
2022/01/27 01:54:14;;;;;;;50.25;17.80;;;;;;;;;;6248252;22;20003;-79
2022/01/27 01:56:40;;;;;;;41.05;15.73;;;;;;;;;;6248194;22;20008;-79
2022/01/27 01:59:06;;;;;;;45.33;15.93;;;;;;;;;;6248413;22;20031;-78
2022/01/27 02:01:32;;;;;;;39.15;14.45;;;;;;;;;;6274929;22;20065;-79
2022/01/27 02:04:02;;;;;;;40.42;15.85;;;;;;;;;;6248134;22;20423;-78
2022/01/27 02:06:34;;;;;;;47.25;15.48;;;;;;;;;;6253539;22;20000;-78
2022/01/27 02:19:40;;;;;;;50.92;18.38;;;;;;;;;;6275035;22;20339;-79
2022/01/27 02:22:06;;;;;;;52.30;18.00;;;;;;;;;;6274788;22;20011;-78
2022/01/27 02:24:33;;;;;;;60.50;20.98;;;;;;;;;;6274946;22;20004;-79
2022/01/27 02:26:59;;;;;;;49.20;17.85;;;;;;;;;;6250778;22;20008;-79
2022/01/27 02:29:25;;;;;;;63.58;21.60;;;;;;;;;;6279404;22;20007;-80
2022/01/27 02:31:55;;;;;;;61.33;21.05;;;;;;;;;;6274978;22;20003;-79
2022/01/27 02:34:21;;;;;;;56.53;20.50;;;;;;;;;;6275156;22;20434;-78
2022/01/27 02:36:47;;;;;;;67.25;21.58;;;;;;;;;;6247962;22;20002;-79
2022/01/27 02:39:12;;;;;;;68.45;25.90;;;;;;;;;;6197787;22;20458;-80
2022/01/27 02:41:50;;;;;;;63.45;20.25;;;;;;;;;;6222828;22;20504;-79
2022/01/27 02:44:20;;;;;;;59.45;20.15;;;;;;;;;;6279056;22;19999;-78
2022/01/27 02:46:45;;;;;;;57.40;20.83;;;;;;;;;;6226785;22;20633;-78
2022/01/27 02:49:11;;;;;;;57.13;20.08;;;;;;;;;;6248189;22;20003;-79
2022/01/27 02:51:37;;;;;;;60.95;20.45;;;;;;;;;;6248927;22;20008;-79
2022/01/27 02:54:03;;;;;;;53.92;17.15;;;;;;;;;;6223855;22;20078;-78
2022/01/27 02:56:29;;;;;;;57.78;21.08;;;;;;;;;;6248008;22;20003;-78
2022/01/27 02:58:54;;;;;;;58.38;20.70;;;;;;;;;;6247896;22;20006;-78
2022/01/27 03:01:21;;;;;;;68.50;21.77;;;;;;;;;;6274808;22;20000;-78
2022/01/27 03:03:46;;;;;;;61.53;21.17;;;;;;;;;;6247977;22;20004;-78
2022/01/27 03:06:12;;;;;;;52.05;19.10;;;;;;;;;;6247750;22;19999;-78
2022/01/27 03:08:37;;;;;;;51.55;19.27;;;;;;;;;;6247923;22;20004;-78
2022/01/27 03:11:03;;;;;;;57.83;20.65;;;;;;;;;;6247876;22;20000;-78
2022/01/27 03:13:30;;;;;;;57.00;19.15;;;;;;;;;;6225320;22;20047;-78
2022/01/27 03:15:56;;;;;;;57.58;20.30;;;;;;;;;;6229944;22;20004;-78
2022/01/27 03:18:21;;;;;;;61.38;20.60;;;;;;;;;;6222832;22;20045;-78
2022/01/27 03:20:47;;;;;;;69.55;20.98;;;;;;;;;;6247797;22;20007;-78
2022/01/27 03:23:12;;;;;;;55.63;18.15;;;;;;;;;;6274563;22;20015;-78
2022/01/27 03:25:38;;;;;;;50.25;18.38;;;;;;;;;;6274663;22;20419;-78
2022/01/27 03:28:04;;;;;;;60.90;20.52;;;;;;;;;;6274778;22;20046;-78
2022/01/27 03:30:30;;;;;;;66.40;22.80;;;;;;;;;;6247553;22;20051;-78
2022/01/27 03:32:55;;;;;;;59.08;20.52;;;;;;;;;;6247803;22;20004;-78
2022/01/27 03:35:20;;;;;;;64.97;20.40;;;;;;;;;;6247652;22;20000;-78
2022/01/27 03:37:46;;;;;;;53.95;18.90;;;;;;;;;;6276537;22;20427;-78
2022/01/27 03:40:12;;;;;;;65.97;21.17;;;;;;;;;;6226523;22;20004;-79
2022/01/27 03:42:44;;;;;;;52.55;20.02;;;;;;;;;;6249616;22;20003;-78
2022/01/27 03:45:10;;;;;;;49.97;19.27;;;;;;;;;;6225683;22;20008;-79
2022/01/27 03:47:36;;;;;;;49.55;16.80;;;;;;;;;;6249616;22;20014;-78
2022/01/27 03:50:02;;;;;;;48.70;17.55;;;;;;;;;;6249648;22;20488;-79
2022/01/27 03:52:27;;;;;;;50.33;17.33;;;;;;;;;;6249868;22;20070;-78
2022/01/27 03:54:53;;;;;;;51.90;18.98;;;;;;;;;;6276233;22;20011;-79
2022/01/27 03:57:18;;;;;;;45.45;17.42;;;;;;;;;;6276377;22;20004;-79
2022/01/27 03:59:44;;;;;;;53.85;18.20;;;;;;;;;;6200286;22;20423;-79
2022/01/27 04:02:09;;;;;;;56.00;18.65;;;;;;;;;;6235428;22;20031;-78
2022/01/27 04:04:35;;;;;;;54.88;18.02;;;;;;;;;;6279697;22;20093;-79
2022/01/27 04:07:02;;;;;;;53.08;19.27;;;;;;;;;;6199669;22;20081;-79
2022/01/27 04:09:28;;;;;;;64.18;20.90;;;;;;;;;;6200180;22;20065;-79
2022/01/27 04:11:54;;;;;;;63.72;22.83;;;;;;;;;;6224210;22;20007;-79
2022/01/27 04:14:20;;;;;;;61.42;21.45;;;;;;;;;;6248677;22;20012;-79
2022/01/27 04:16:46;;;;;;;89.72;26.95;;;;;;;;;;6276152;22;20395;-79
2022/01/27 04:19:11;;;;;;;90.78;26.33;;;;;;;;;;6276221;22;20010;-79
2022/01/27 04:21:37;;;;;;;86.68;25.25;;;;;;;;;;6250370;22;20059;-78
2022/01/27 04:24:03;;;;;;;121.78;31.60;;;;;;;;;;6279789;22;20003;-78
2022/01/27 04:26:38;;;;;;;103.60;29.33;;;;;;;;;;6287021;22;20004;-80
2022/01/27 04:29:04;;;;;;;103.45;28.27;;;;;;;;;;6277138;22;20006;-79
2022/01/27 04:31:30;;;;;;;166.85;36.90;;;;;;;;;;6249461;22;20308;-78
2022/01/27 04:33:55;;;;;;;193.27;41.50;;;;;;;;;;6276074;22;19999;-78
2022/01/27 04:36:29;;;;;;;217.25;41.30;;;;;;;;;;6276066;22;20418;-78
2022/01/27 04:39:23;;;;;;;187.23;36.97;;;;;;;;;;6248920;22;20069;-78
2022/01/27 04:44:19;;;;;;;145.07;32.35;;;;;;;;;;6277030;22;20015;-79
2022/01/27 04:46:55;;;;;;;118.85;30.38;;;;;;;;;;6252739;22;20065;-78
2022/01/27 04:49:21;;;;;;;192.65;37.05;;;;;;;;;;6283001;22;20003;-78
2022/01/27 04:51:46;;;;;;;229.02;45.00;;;;;;;;;;6275524;22;20052;-78
2022/01/27 04:56:39;;;;;;;192.95;42.80;;;;;;;;;;6248910;22;19996;-78
2022/01/27 04:59:12;;;;;;;157.15;40.97;;;;;;;;;;6275740;22;20369;-79
2022/01/27 05:01:44;;;;;;;140.85;39.03;;;;;;;;;;6275652;22;20023;-78
2022/01/27 05:04:13;;;;;;;95.55;30.75;;;;;;;;;;6248903;22;20016;-78
2022/01/27 05:06:39;;;;;;;108.47;31.67;;;;;;;;;;6276155;22;20082;-79
2022/01/27 05:09:05;;;;;;;88.53;29.88;;;;;;;;;;6275688;22;20012;-78
2022/01/27 05:11:35;;;;;;;89.78;29.02;;;;;;;;;;6282722;22;20031;-79
2022/01/27 05:16:29;;;;;;;90.18;28.10;;;;;;;;;;6276172;22;20415;-79
2022/01/27 05:18:55;;;;;;;83.18;27.08;;;;;;;;;;6223521;22;20003;-78
2022/01/27 05:21:21;;;;;;;81.05;28.35;;;;;;;;;;6248349;22;20039;-78
2022/01/27 05:23:46;;;;;;;79.05;26.60;;;;;;;;;;6248689;22;20086;-79
2022/01/27 05:26:12;;;;;;;85.22;27.05;;;;;;;;;;6278404;22;20004;-78
2022/01/27 05:28:37;;;;;;;100.38;30.92;;;;;;;;;;6275511;22;20419;-79
2022/01/27 05:31:05;;;;;;;78.28;28.52;;;;;;;;;;6248557;22;20086;-79
2022/01/27 05:33:31;;;;;;;106.65;31.90;;;;;;;;;;6226187;22;20506;-79
2022/01/27 05:35:56;;;;;;;105.25;34.85;;;;;;;;;;6251248;22;20393;-79
2022/01/27 05:38:22;;;;;;;96.55;32.30;;;;;;;;;;6275480;22;20053;-79
2022/01/27 05:40:47;;;;;;;95.45;33.60;;;;;;;;;;6223649;22;20000;-79
2022/01/27 05:43:13;;;;;;;104.32;34.78;;;;;;;;;;6249176;22;20008;-78
2022/01/27 05:45:39;;;;;;;117.32;39.35;;;;;;;;;;6248665;22;20389;-78
2022/01/27 05:48:04;;;;;;;128.40;43.10;;;;;;;;;;6292550;22;20008;-78
2022/01/27 05:50:30;;;;;;;121.57;40.30;;;;;;;;;;6282642;22;20004;-78
2022/01/27 05:52:56;;;;;;;127.05;40.25;;;;;;;;;;6275162;22;20492;-78
2022/01/27 05:55:22;;;;;;;174.30;51.58;;;;;;;;;;6222190;22;20065;-78
2022/01/27 05:57:47;;;;;;;193.20;53.15;;;;;;;;;;6227955;22;19996;-78
2022/01/27 06:00:13;;;;;;;186.05;60.78;;;;;;;;;;6223248;22;20023;-78
2022/01/27 06:02:38;;;;;;;140.23;45.20;;;;;;;;;;6247878;22;20025;-79
2022/01/27 06:05:04;;;;;;;118.30;38.72;;;;;;;;;;6275049;22;20080;-79
2022/01/27 06:07:30;;;;;;;112.07;37.75;;;;;;;;;;6249026;22;20004;-79
2022/01/27 06:09:56;;;;;;;122.15;40.15;;;;;;;;;;6222898;22;20081;-79
2022/01/27 06:12:22;;;;;;;118.82;39.83;;;;;;;;;;6248226;22;20082;-78
2022/01/27 06:14:47;;;;;;;105.80;37.35;;;;;;;;;;6222869;22;20007;-79
2022/01/27 06:17:13;;;;;;;127.25;40.70;;;;;;;;;;6248021;22;20007;-78
2022/01/27 06:19:38;;;;;;;136.90;45.22;;;;;;;;;;6222891;22;20011;-79
2022/01/27 06:22:11;;;;;;;126.38;40.95;;;;;;;;;;6277675;22;20055;-78
2022/01/27 06:24:41;;;;;;;122.53;39.88;;;;;;;;;;6248156;22;20007;-79
2022/01/27 06:27:06;;;;;;;92.18;31.15;;;;;;;;;;6248058;22;20010;-79
2022/01/27 06:29:32;;;;;;;94.15;32.35;;;;;;;;;;6223248;22;20067;-78
2022/01/27 06:31:58;;;;;;;98.32;29.00;;;;;;;;;;6223179;22;20012;-79
2022/01/27 06:34:23;;;;;;;84.35;27.63;;;;;;;;;;6248190;22;20398;-78
2022/01/27 06:36:49;;;;;;;85.93;24.65;;;;;;;;;;6247764;22;20034;-79
2022/01/27 06:39:14;;;;;;;66.20;21.77;;;;;;;;;;6274847;22;20074;-78
2022/01/27 06:41:41;;;;;;;70.22;22.45;;;;;;;;;;6275064;22;20027;-79
2022/01/27 06:44:06;;;;;;;74.32;22.83;;;;;;;;;;6280466;22;20006;-77
2022/01/27 06:46:32;;;;;;;67.05;22.45;;;;;;;;;;6275520;22;20409;-78
2022/01/27 06:48:58;;;;;;;67.85;23.05;;;;;;;;;;6274917;22;20114;-78
2022/01/27 06:51:26;;;;;;;74.53;25.23;;;;;;;;;;6275323;22;20007;-78
2022/01/27 06:53:51;;;;;;;81.72;26.95;;;;;;;;;;6274579;22;20000;-79
2022/01/27 06:56:17;;;;;;;76.30;26.20;;;;;;;;;;6248021;22;20014;-78
2022/01/27 06:58:42;;;;;;;85.68;27.55;;;;;;;;;;6274328;22;20439;-78
2022/01/27 07:01:08;;;;;;;76.82;25.17;;;;;;;;;;6248035;22;20003;-78
2022/01/27 07:03:33;;;;;;;71.03;23.90;;;;;;;;;;6197864;22;20391;-78
2022/01/27 07:05:59;;;;;;;62.55;20.75;;;;;;;;;;6275239;22;20000;-79
2022/01/27 07:08:24;;;;;;;73.45;23.08;;;;;;;;;;6283595;22;20003;-78
2022/01/27 07:10:49;;;;;;;86.40;27.42;;;;;;;;;;6275509;22;20034;-78
2022/01/27 07:13:15;;;;;;;105.03;34.63;;;;;;;;;;6249213;22;20348;-79
2022/01/27 07:15:40;;;;;;;209.05;58.95;;;;;;;;;;6223906;22;20027;-79
2022/01/27 07:18:06;;;;;;;136.73;42.25;;;;;;;;;;6250121;22;20021;-79
2022/01/27 07:20:31;;;;;;;111.60;33.47;;;;;;;;;;6276814;22;20030;-78
2022/01/27 07:22:57;;;;;;;92.53;30.20;;;;;;;;;;6278726;22;20053;-78
2022/01/27 07:25:22;;;;;;;168.27;42.50;;;;;;;;;;6278700;22;20019;-79
2022/01/27 07:27:57;;;;;;;201.73;46.63;;;;;;;;;;6251889;22;20077;-78
2022/01/27 07:30:23;;;;;;;209.65;45.65;;;;;;;;;;6204508;22;20035;-78
2022/01/27 07:32:49;;;;;;;132.77;36.03;;;;;;;;;;6284580;22;20007;-79
2022/01/27 07:35:15;;;;;;;116.20;30.33;;;;;;;;;;6227583;22;20011;-78
2022/01/27 07:37:42;;;;;;;122.75;35.45;;;;;;;;;;6226518;22;20004;-78
2022/01/27 07:40:09;;;;;;;137.38;35.85;;;;;;;;;;6252462;22;20415;-77
2022/01/27 07:42:36;;;;;;;156.00;40.55;;;;;;;;;;6252681;22;20000;-78
2022/01/27 07:45:01;;;;;;;173.07;45.97;;;;;;;;;;6278110;22;19999;-79
2022/01/27 07:47:27;;;;;;;168.32;46.08;;;;;;;;;;6250418;22;19999;-77
2022/01/27 07:49:52;;;;;;;115.43;34.97;;;;;;;;;;6277195;22;20062;-78
2022/01/27 07:52:19;;;;;;;126.88;38.15;;;;;;;;;;6250939;22;20030;-78
2022/01/27 07:54:45;;;;;;;109.53;33.25;;;;;;;;;;6231944;22;20068;-78
2022/01/27 07:57:12;;;;;;;103.70;31.27;;;;;;;;;;6232774;22;20003;-78
2022/01/27 07:59:38;;;;;;;90.68;29.27;;;;;;;;;;6279726;22;20458;-78
2022/01/27 08:02:03;;;;;;;89.20;29.10;;;;;;;;;;6252117;22;20000;-78
2022/01/27 08:04:29;;;;;;;90.85;30.33;;;;;;;;;;6225558;22;20007;-78
2022/01/27 08:06:56;;;;;;;86.78;26.63;;;;;;;;;;6276814;22;20397;-79
2022/01/27 08:09:22;;;;;;;84.63;29.27;;;;;;;;;;6250528;22;20003;-78
2022/01/27 08:11:47;;;;;;;94.72;32.63;;;;;;;;;;6250590;22;20149;-79
2022/01/27 08:14:13;;;;;;;87.03;26.27;;;;;;;;;;6278147;22;20000;-79
2022/01/27 08:16:38;;;;;;;67.82;21.58;;;;;;;;;;6251135;22;20394;-79
2022/01/27 08:19:04;;;;;;;64.60;21.13;;;;;;;;;;6257513;22;19999;-79
2022/01/27 08:21:29;;;;;;;76.18;24.30;;;;;;;;;;6286291;22;20012;-79
2022/01/27 08:23:56;;;;;;;71.05;23.30;;;;;;;;;;6277563;22;20011;-79
2022/01/27 08:27:01;;;;;;;79.85;27.02;;;;;;;;;;6250127;22;20351;-78
2022/01/27 08:31:57;;;;;;;58.55;20.30;;;;;;;;;;6225915;22;20007;-79
2022/01/27 08:34:31;;;;;;;76.78;28.30;;;;;;;;;;6252855;22;20007;-78
2022/01/27 08:36:58;;;;;;;60.75;22.95;;;;;;;;;;6251357;22;20004;-79
2022/01/27 08:39:24;;;;;;;56.95;21.73;;;;;;;;;;6254081;22;20004;-79
2022/01/27 08:41:49;;;;;;;52.72;20.83;;;;;;;;;;6279729;22;20030;-79
2022/01/27 08:44:15;;;;;;;53.38;21.08;;;;;;;;;;6278895;22;19999;-79
2022/01/27 08:46:41;;;;;;;56.70;21.70;;;;;;;;;;6224441;22;20023;-80
2022/01/27 08:49:07;;;;;;;57.35;22.73;;;;;;;;;;6224680;22;20010;-78
2022/01/27 08:51:32;;;;;;;67.85;23.30;;;;;;;;;;6228780;22;20007;-78
2022/01/27 08:53:58;;;;;;;62.45;24.20;;;;;;;;;;6243368;22;20031;-79
2022/01/27 08:56:23;;;;;;;70.75;24.15;;;;;;;;;;6281760;22;20007;-79
2022/01/27 08:58:49;;;;;;;66.28;22.90;;;;;;;;;;6277923;22;19996;-78
2022/01/27 09:01:15;;;;;;;69.03;23.15;;;;;;;;;;6204622;22;20042;-78
2022/01/27 09:03:41;;;;;;;66.35;22.77;;;;;;;;;;6200764;22;20433;-78
2022/01/27 09:06:07;;;;;;;59.28;21.27;;;;;;;;;;6234879;22;20004;-79
2022/01/27 09:08:33;;;;;;;60.75;21.48;;;;;;;;;;6226023;22;20000;-79
2022/01/27 09:10:58;;;;;;;61.88;21.20;;;;;;;;;;6277094;22;20007;-79
2022/01/27 09:13:25;;;;;;;55.05;21.48;;;;;;;;;;6276695;22;20398;-79
2022/01/27 09:15:51;;;;;;;72.25;25.52;;;;;;;;;;6276192;22;20007;-80
2022/01/27 09:18:17;;;;;;;93.82;36.03;;;;;;;;;;6224656;22;20003;-78
2022/01/27 09:20:43;;;;;;;62.83;24.90;;;;;;;;;;6225401;22;20845;-78
2022/01/27 09:23:13;;;;;;;70.00;24.95;;;;;;;;;;6199614;22;20046;-77
2022/01/27 09:25:44;;;;;;;63.58;22.20;;;;;;;;;;6250615;22;20004;-80
2022/01/27 09:28:10;;;;;;;72.00;26.20;;;;;;;;;;6227442;22;20003;-80
2022/01/27 09:30:36;;;;;;;62.72;23.77;;;;;;;;;;6199197;22;20042;-78
2022/01/27 09:33:02;;;;;;;68.60;27.58;;;;;;;;;;6249189;22;20057;-79
2022/01/27 09:35:28;;;;;;;60.95;23.05;;;;;;;;;;6200075;22;20395;-78
2022/01/27 09:37:54;;;;;;;66.28;23.77;;;;;;;;;;6276481;22;20034;-79
2022/01/27 09:40:19;;;;;;;51.95;19.73;;;;;;;;;;6249322;22;20008;-79
2022/01/27 09:42:51;;;;;;;52.50;19.70;;;;;;;;;;6225331;22;20007;-79
2022/01/27 09:45:17;;;;;;;45.78;18.67;;;;;;;;;;6251662;22;20004;-80
2022/01/27 09:47:43;;;;;;;83.60;24.80;;;;;;;;;;6276728;22;20471;-80
2022/01/27 09:50:46;;;;;;;54.15;19.67;;;;;;;;;;6257779;22;20008;-79
2022/01/27 09:52:55;;;;;;;50.05;17.73;;;;;;;;;;6280134;22;20007;-78
2022/01/27 09:55:21;;;;;;;54.33;19.85;;;;;;;;;;6250322;22;20003;-79
2022/01/27 09:57:47;;;;;;;69.93;29.17;;;;;;;;;;6275869;22;20462;-79
2022/01/27 10:00:13;;;;;;;85.88;35.47;;;;;;;;;;6248797;22;20085;-79
2022/01/27 10:02:39;;;;;;;65.45;26.50;;;;;;;;;;6222840;22;20085;-78
2022/01/27 10:05:07;;;;;;;59.55;22.98;;;;;;;;;;6249254;22;20014;-79
2022/01/27 10:07:40;;;;;;;52.85;22.80;;;;;;;;;;6249468;22;20006;-79
2022/01/27 10:10:10;;;;;;;38.35;14.68;;;;;;;;;;6250128;22;20011;-79
2022/01/27 10:12:47;;;;;;;36.97;14.05;;;;;;;;;;6250202;22;20397;-79
2022/01/27 10:15:17;;;;;;;40.33;15.18;;;;;;;;;;6225495;22;20007;-79
2022/01/27 10:18:01;;;;;;;;;;;;;;;;;;6249666;22;20982;-79
2022/01/27 10:20:27;;;;;;;46.72;16.52;;;;;;;;;;6275665;22;19912;-79
2022/01/27 10:23:15;;;;;;;39.25;13.57;;;;;;;;;;6276053;22;20497;-80
2022/01/27 10:25:47;;;;;;;45.00;16.20;;;;;;;;;;6199405;22;20010;-79
2022/01/27 10:28:30;;;;;;;71.43;24.65;;;;;;;;;;6201414;22;20102;-79
2022/01/27 10:31:10;;;;;;;45.75;15.57;;;;;;;;;;6276091;22;20000;-79
2022/01/27 10:33:42;;;;;;;99.18;29.35;;;;;;;;;;6250807;22;20065;-79
2022/01/27 10:36:31;;;;;;;41.00;14.60;;;;;;;;;;6249591;22;20478;-79
2022/01/27 10:39:00;;;;;;;49.55;18.48;;;;;;;;;;6226648;22;20003;-79
2022/01/27 10:41:27;;;;;;;66.70;27.93;;;;;;;;;;6275567;22;20020;-79
2022/01/27 10:44:14;;;;;;;42.88;16.92;;;;;;;;;;6248257;22;20011;-79
2022/01/27 10:46:49;;;;;;;37.08;14.80;;;;;;;;;;6249649;22;20057;-79
2022/01/27 10:49:27;;;;;;;42.92;16.20;;;;;;;;;;6248399;22;20308;-80
2022/01/27 10:51:55;;;;;;;56.83;17.95;;;;;;;;;;6235850;22;20084;-81
2022/01/27 10:54:37;;;;;;;74.30;24.60;;;;;;;;;;6259366;22;20003;-79
2022/01/27 10:57:28;;;;;;;53.72;17.58;;;;;;;;;;6228031;22;20038;-79
2022/01/27 11:00:15;;;;;;;61.70;19.55;;;;;;;;;;6253013;22;20015;-79
2022/01/27 11:02:50;;;;;;;58.65;19.45;;;;;;;;;;6222983;22;20012;-79
2022/01/27 11:05:21;;;;;;;52.20;18.13;;;;;;;;;;6248573;22;20087;-79
2022/01/27 11:07:47;;;;;;;63.97;19.75;;;;;;;;;;6205617;22;20374;-80
2022/01/27 11:10:16;;;;;;;49.25;15.57;;;;;;;;;;6224444;22;19996;-80
2022/01/27 11:12:43;;;;;;;78.95;23.10;;;;;;;;;;6231317;22;20004;-80
2022/01/27 11:15:13;;;;;;;52.90;16.30;;;;;;;;;;6226246;22;20023;-79
2022/01/27 11:17:40;;;;;;;59.20;19.27;;;;;;;;;;6250145;22;20008;-80
2022/01/27 11:28:02;;;;;;;35.05;13.15;;;;;;;;;;6248936;22;20470;-77
2022/01/27 11:30:33;;;;;;;33.75;12.75;;;;;;;;;;6249733;22;20007;-78
2022/01/27 11:33:15;;;;;;;41.35;15.00;;;;;;;;;;6278426;22;20006;-78
2022/01/27 11:35:41;;;;;;;48.72;16.83;;;;;;;;;;6234865;22;20389;-79
2022/01/27 11:38:08;;;;;;;45.67;16.83;;;;;;;;;;6249487;22;20007;-78
2022/01/27 11:40:33;;;;;;;39.78;13.60;;;;;;;;;;6275786;22;20000;-78
2022/01/27 11:42:59;;;;;;;36.97;14.38;;;;;;;;;;6275344;22;20019;-79
2022/01/27 11:45:26;;;;;;;46.75;16.83;;;;;;;;;;6251003;22;20004;-79
2022/01/27 11:48:07;;;;;;;61.75;19.40;;;;;;;;;;6276486;22;20090;-79
2022/01/27 11:50:37;;;;;;;51.17;16.30;;;;;;;;;;6280192;22;20081;-79
2022/01/27 11:53:11;;;;;;;42.80;15.98;;;;;;;;;;6276394;22;20003;-78
2022/01/27 11:55:40;;;;;;;45.97;16.52;;;;;;;;;;6204271;22;20049;-79
2022/01/27 11:58:16;;;;;;;40.90;15.70;;;;;;;;;;6279534;22;20000;-79
2022/01/27 12:01:00;;;;;;;39.55;15.60;;;;;;;;;;6276998;22;20008;-79
2022/01/27 12:03:26;;;;;;;47.72;16.15;;;;;;;;;;6276986;22;20149;-79
2022/01/27 12:06:11;;;;;;;43.28;16.08;;;;;;;;;;6277172;22;20000;-79
2022/01/27 12:08:37;;;;;;;42.88;13.23;;;;;;;;;;6252936;22;20063;-78
2022/01/27 12:11:06;;;;;;;43.20;15.95;;;;;;;;;;6255443;22;20007;-79
2022/01/27 12:13:39;;;;;;;36.50;14.05;;;;;;;;;;6225159;22;20012;-79
2022/01/27 12:19:08;;;;;;;35.75;12.70;;;;;;;;;;6232370;22;20008;-78
2022/01/27 12:21:48;;;;;;;32.15;11.63;;;;;;;;;;6227129;22;20014;-78
2022/01/27 12:24:17;;;;;;;44.55;15.32;;;;;;;;;;6277427;22;20071;-78
2022/01/27 12:26:52;;;;;;;32.38;13.02;;;;;;;;;;6277221;22;19999;-78
2022/01/27 12:29:28;;;;;;;39.75;14.52;;;;;;;;;;6278055;22;20004;-78
2022/01/27 12:31:56;;;;;;;45.15;16.55;;;;;;;;;;6281592;22;20443;-78
2022/01/27 12:34:22;;;;;;;49.22;17.92;;;;;;;;;;6251114;22;20343;-78
2022/01/27 12:36:57;;;;;;;47.53;16.80;;;;;;;;;;6199635;22;20010;-78
2022/01/27 12:39:24;;;;;;;43.03;16.25;;;;;;;;;;6277391;22;20004;-78
2022/01/27 12:41:50;;;;;;;53.75;17.70;;;;;;;;;;6257388;22;20098;-78
2022/01/27 12:44:16;;;;;;;45.95;16.98;;;;;;;;;;6225324;22;20466;-79
2022/01/27 12:47:00;;;;;;;49.50;17.52;;;;;;;;;;6277282;22;20011;-79
2022/01/27 12:49:42;;;;;;;44.15;15.88;;;;;;;;;;6251193;22;20004;-78
2022/01/27 12:52:09;;;;;;;43.20;13.90;;;;;;;;;;6226264;22;20681;-78
2022/01/27 12:54:36;;;;;;;31.48;12.48;;;;;;;;;;6250681;22;20015;-79
2022/01/27 12:57:02;;;;;;;39.80;14.65;;;;;;;;;;6277003;22;20003;-78
2022/01/27 12:59:32;;;;;;;59.42;19.80;;;;;;;;;;6200134;22;20010;-78
2022/01/27 13:02:03;;;;;;;52.50;16.98;;;;;;;;;;6225720;22;20003;-79
2022/01/27 13:04:29;;;;;;;38.72;14.60;;;;;;;;;;6256547;22;20010;-79
2022/01/27 13:06:56;;;;;;;36.63;13.48;;;;;;;;;;6278797;22;20374;-78
2022/01/27 13:09:22;;;;;;;42.38;13.65;;;;;;;;;;6226793;22;20361;-78
2022/01/27 13:11:50;;;;;;;39.38;13.13;;;;;;;;;;6250197;22;19999;-79
2022/01/27 13:14:16;;;;;;;40.13;13.82;;;;;;;;;;6253553;22;20362;-78
2022/01/27 13:16:47;;;;;;;45.10;15.05;;;;;;;;;;6276520;22;20719;-78
2022/01/27 13:19:31;;;;;;;39.78;12.57;;;;;;;;;;6200853;22;20004;-78
2022/01/27 13:22:01;;;;;;;64.00;20.38;;;;;;;;;;6228568;22;20018;-78
2022/01/27 13:24:30;;;;;;;;;;;;;;;;;;6225181;22;20000;-78
2022/01/27 13:27:09;;;;;;;34.13;12.05;;;;;;;;;;6287132;22;19907;-80
2022/01/27 13:29:44;;;;;;;29.98;10.25;;;;;;;;;;6283818;22;20007;-78
2022/01/27 13:32:11;;;;;;;31.35;11.73;;;;;;;;;;6250866;22;19999;-79
2022/01/27 13:34:46;;;;;;;38.38;12.95;;;;;;;;;;6277694;22;20090;-78
2022/01/27 13:37:12;;;;;;;32.78;11.95;;;;;;;;;;6248493;22;20000;-78
2022/01/27 13:42:18;;;;;;;;;;;;;;;;;;6251198;22;20046;-78
2022/01/27 13:44:57;;;;;;;40.75;13.77;;;;;;;;;;6275414;22;19978;-78
2022/01/27 13:47:35;;;;;;;35.95;12.35;;;;;;;;;;6276229;22;20003;-78
2022/01/27 13:50:20;;;;;;;35.00;11.40;;;;;;;;;;6232870;22;20003;-78
2022/01/27 13:52:49;;;;;;;40.90;12.63;;;;;;;;;;6224634;22;20378;-78
2022/01/27 13:55:17;;;;;;;54.58;16.02;;;;;;;;;;6224208;22;20015;-78
2022/01/27 13:57:53;;;;;;;56.88;17.35;;;;;;;;;;6198504;22;20059;-78
2022/01/27 14:00:22;;;;;;;44.13;12.95;;;;;;;;;;6227278;22;20000;-78
2022/01/27 14:02:48;;;;;;;45.85;14.95;;;;;;;;;;6248848;22;20010;-78
2022/01/27 14:05:13;;;;;;;33.10;12.02;;;;;;;;;;6275122;22;20397;-78
2022/01/27 14:07:40;;;;;;;40.05;12.25;;;;;;;;;;6275083;22;20006;-77
2022/01/27 14:10:17;;;;;;;43.15;14.52;;;;;;;;;;6275149;22;20004;-78
2022/01/27 14:12:55;;;;;;;37.70;13.98;;;;;;;;;;6253836;22;20140;-79
2022/01/27 14:15:30;;;;;;;44.92;15.05;;;;;;;;;;6249592;22;20008;-78
2022/01/27 14:18:08;;;;;;;41.20;14.38;;;;;;;;;;6275440;22;19999;-77
2022/01/27 14:20:34;;;;;;;41.83;13.52;;;;;;;;;;6222742;22;20038;-78
2022/01/27 14:23:20;;;;;;;44.88;15.68;;;;;;;;;;6222425;22;20004;-79
2022/01/27 14:25:54;;;;;;;34.13;12.93;;;;;;;;;;6200768;22;20008;-78
2022/01/27 14:28:19;;;;;;;38.13;13.35;;;;;;;;;;6226293;22;20346;-77
2022/01/27 14:30:45;;;;;;;40.45;12.80;;;;;;;;;;6222716;22;20004;-78
2022/01/27 14:33:11;;;;;;;42.42;14.20;;;;;;;;;;6248298;22;20004;-78
2022/01/27 14:35:36;;;;;;;43.08;13.73;;;;;;;;;;6278928;22;20087;-80
2022/01/27 14:38:02;;;;;;;40.25;13.32;;;;;;;;;;6252769;22;19995;-78
2022/01/27 14:40:28;;;;;;;41.60;14.68;;;;;;;;;;6274908;22;20015;-78
2022/01/27 14:42:58;;;;;;;46.85;15.32;;;;;;;;;;6223169;22;20004;-78
2022/01/27 14:45:23;;;;;;;65.67;20.10;;;;;;;;;;6223767;22;20007;-78
2022/01/27 14:47:51;;;;;;;81.07;25.00;;;;;;;;;;6275037;22;20000;-78
2022/01/27 14:50:17;;;;;;;56.22;17.65;;;;;;;;;;6275174;22;20008;-78
2022/01/27 14:52:44;;;;;;;57.15;17.63;;;;;;;;;;6274885;22;19992;-78
2022/01/27 14:55:14;;;;;;;58.85;18.80;;;;;;;;;;6223714;22;20003;-78
2022/01/27 14:57:39;;;;;;;79.20;24.23;;;;;;;;;;6243470;22;20006;-79
2022/01/27 15:00:06;;;;;;;86.93;25.77;;;;;;;;;;6231182;22;20004;-77
2022/01/27 15:02:31;;;;;;;77.97;24.75;;;;;;;;;;6248901;22;19999;-78
2022/01/27 15:04:57;;;;;;;95.07;28.17;;;;;;;;;;6223440;22;20033;-78
2022/01/27 15:07:22;;;;;;;72.30;21.15;;;;;;;;;;6248335;22;20003;-78
2022/01/27 15:09:48;;;;;;;79.32;25.13;;;;;;;;;;6222870;22;20003;-77
2022/01/27 15:12:15;;;;;;;77.07;23.08;;;;;;;;;;6248260;22;20008;-78
2022/01/27 15:20:11;;;;;;;93.38;27.83;;;;;;;;;;6274445;22;20050;-77
2022/01/27 15:22:37;;;;;;;80.78;26.60;;;;;;;;;;6276412;22;20063;-77
2022/01/27 15:25:02;;;;;;;73.80;24.45;;;;;;;;;;6248493;22;20004;-77
2022/01/27 15:27:28;;;;;;;68.75;21.45;;;;;;;;;;6247801;22;20335;-77
2022/01/27 15:29:53;;;;;;;72.55;24.45;;;;;;;;;;6222633;22;20053;-77
2022/01/27 15:32:21;;;;;;;67.18;21.65;;;;;;;;;;6222330;22;20003;-78
2022/01/27 15:34:47;;;;;;;67.20;24.20;;;;;;;;;;6247767;22;19996;-78
2022/01/27 15:37:14;;;;;;;70.65;23.77;;;;;;;;;;6277488;22;20007;-78
2022/01/27 15:39:45;;;;;;;68.82;23.90;;;;;;;;;;6250288;22;20000;-78
2022/01/27 15:42:13;;;;;;;73.68;22.90;;;;;;;;;;6276795;22;19995;-78